createdAt,value
2023-05-20T00:01:50.490Z,6.10
2023-05-20T00:04:17.864Z,5.00
2023-05-20T00:06:45.302Z,6.90
2023-05-20T00:09:12.594Z,9.10
2023-05-20T00:11:39.910Z,5.80
2023-05-20T00:14:07.106Z,6.70
2023-05-20T00:16:34.358Z,6.40
2023-05-20T00:19:01.537Z,8.60
2023-05-20T00:21:29.665Z,6.90
2023-05-20T00:23:57.022Z,4.90
2023-05-20T00:26:24.265Z,4.90
2023-05-20T00:28:52.737Z,8.00
2023-05-20T00:31:19.881Z,6.00
2023-05-20T00:33:47.161Z,3.90
2023-05-20T00:36:14.624Z,8.50
2023-05-20T00:38:41.848Z,3.60
2023-05-20T00:41:09.022Z,5.10
2023-05-20T00:43:36.399Z,6.90
2023-05-20T00:46:03.922Z,6.80
2023-05-20T00:48:39.380Z,6.00
2023-05-20T00:51:07.791Z,7.80
2023-05-20T00:53:35.634Z,5.30
2023-05-20T00:56:04.409Z,4.00
2023-05-20T00:58:32.263Z,7.20
2023-05-20T01:00:59.517Z,3.40
2023-05-20T01:03:27.690Z,2.40
2023-05-20T01:05:55.122Z,4.80
2023-05-20T01:08:26.289Z,4.90
2023-05-20T01:11:09.447Z,5.70
2023-05-20T01:13:43.425Z,3.10
2023-05-20T01:16:12.151Z,3.00
2023-05-20T01:18:39.588Z,2.40
2023-05-20T01:21:08.766Z,4.30
2023-05-20T01:23:40.548Z,4.60
2023-05-20T01:26:13.812Z,2.60
2023-05-20T01:28:46.030Z,8.10
2023-05-20T01:31:23.949Z,3.30
2023-05-20T01:33:56.289Z,3.40
2023-05-20T01:36:23.878Z,4.90
2023-05-20T01:38:51.708Z,3.20
2023-05-20T01:41:19.371Z,3.70
2023-05-20T01:43:46.533Z,4.30
2023-05-20T01:46:15.163Z,2.90
2023-05-20T01:48:43.162Z,2.00
2023-05-20T01:51:10.526Z,3.80
2023-05-20T01:53:37.791Z,7.30
2023-05-20T01:56:06.327Z,4.80
2023-05-20T01:58:33.657Z,5.00
2023-05-20T02:01:01.805Z,4.80
2023-05-20T02:03:29.212Z,3.90
2023-05-20T02:05:56.573Z,3.60
2023-05-20T02:08:23.892Z,5.00
2023-05-20T02:10:51.320Z,3.80
2023-05-20T02:13:18.508Z,4.50
2023-05-20T02:15:45.940Z,15.70
2023-05-20T02:18:14.211Z,6.20
2023-05-20T02:20:42.774Z,5.30
2023-05-20T02:23:09.966Z,14.70
2023-05-20T02:25:37.235Z,3.60
2023-05-20T02:28:06.164Z,4.20
2023-05-20T02:30:33.630Z,4.70
2023-05-20T02:33:00.840Z,7.90
2023-05-20T02:35:28.089Z,6.30
2023-05-20T02:37:55.650Z,4.70
2023-05-20T02:40:23.142Z,5.20
2023-05-20T02:42:50.445Z,7.10
2023-05-20T02:45:18.004Z,14.70
2023-05-20T02:47:45.895Z,10.50
2023-05-20T02:50:13.105Z,8.10
2023-05-20T02:52:42.583Z,5.40
2023-05-20T02:55:10.331Z,8.60
2023-05-20T02:57:38.531Z,4.00
2023-05-20T03:00:11.194Z,3.80
2023-05-20T03:02:38.414Z,5.60
2023-05-20T03:05:06.077Z,4.80
2023-05-20T03:07:36.469Z,3.60
2023-05-20T03:10:07.124Z,4.20
2023-05-20T03:12:34.370Z,3.00
2023-05-20T03:15:01.539Z,3.10
2023-05-20T03:17:28.893Z,3.40
2023-05-20T03:19:57.280Z,2.80
2023-05-20T03:22:25.185Z,3.30
2023-05-20T03:24:53.027Z,3.40
2023-05-20T03:27:21.662Z,6.60
2023-05-20T03:29:48.961Z,5.30
2023-05-20T03:32:17.242Z,2.80
2023-05-20T03:34:44.495Z,4.10
2023-05-20T03:37:11.694Z,4.80
2023-05-20T03:39:38.956Z,4.00
2023-05-20T03:42:06.904Z,8.70
2023-05-20T03:44:35.370Z,4.40
2023-05-20T03:47:03.005Z,4.60
2023-05-20T03:49:30.657Z,3.70
2023-05-20T03:51:58.004Z,2.70
2023-05-20T03:54:25.480Z,4.80
2023-05-20T03:56:53.020Z,5.80
2023-05-20T03:59:22.453Z,5.60
2023-05-20T04:01:49.776Z,7.00
2023-05-20T04:04:16.947Z,4.60
2023-05-20T04:06:44.121Z,3.40
2023-05-20T04:09:12.014Z,4.10
2023-05-20T04:11:39.354Z,6.00
2023-05-20T04:14:06.993Z,5.60
2023-05-20T04:16:34.322Z,5.90
2023-05-20T04:19:02.875Z,3.50
2023-05-20T04:21:31.642Z,8.20
2023-05-20T04:23:59.093Z,5.60
2023-05-20T04:26:26.389Z,7.10
2023-05-20T04:28:53.619Z,3.90
2023-05-20T04:31:26.938Z,4.90
2023-05-20T04:33:54.910Z,9.60
2023-05-20T04:36:22.885Z,6.20
2023-05-20T04:38:50.171Z,8.70
2023-05-20T04:41:17.458Z,4.40
2023-05-20T04:43:46.022Z,2.50
2023-05-20T04:46:14.372Z,4.00
2023-05-20T04:48:44.000Z,6.10
2023-05-20T04:51:13.569Z,3.30
2023-05-20T04:53:40.746Z,4.40
2023-05-20T04:56:08.385Z,2.90
2023-05-20T04:58:35.661Z,5.80
2023-05-20T05:01:03.392Z,6.30
2023-05-20T05:03:31.387Z,6.50
2023-05-20T05:05:59.222Z,4.40
2023-05-20T05:08:26.990Z,7.60
2023-05-20T05:10:54.321Z,7.40
2023-05-20T05:13:21.508Z,13.40
2023-05-20T05:15:48.878Z,15.80
2023-05-20T05:18:18.700Z,26.80
2023-05-20T05:20:46.293Z,16.40
2023-05-20T05:23:13.607Z,15.40
2023-05-20T05:25:40.905Z,12.10
2023-05-20T05:28:08.127Z,4.60
2023-05-20T05:30:35.706Z,5.10
2023-05-20T05:33:02.997Z,6.30
2023-05-20T05:35:30.310Z,3.80
2023-05-20T05:37:57.456Z,6.60
2023-05-20T05:40:24.711Z,32.90
2023-05-20T05:42:51.938Z,16.50
2023-05-20T05:45:19.316Z,11.70
2023-05-20T05:47:47.238Z,6.60
2023-05-20T05:50:14.994Z,7.10
2023-05-20T05:52:42.945Z,5.50
2023-05-20T05:55:11.568Z,21.90
2023-05-20T05:57:38.861Z,9.70
2023-05-20T06:00:08.086Z,3.90
2023-05-20T06:02:45.824Z,5.60
2023-05-20T06:05:13.824Z,5.70
2023-05-20T06:07:41.060Z,12.40
2023-05-20T06:10:09.535Z,15.90
2023-05-20T06:12:36.902Z,7.80
2023-05-20T06:15:04.633Z,5.80
2023-05-20T06:17:31.841Z,8.20
2023-05-20T06:19:59.961Z,7.80
2023-05-20T06:22:27.452Z,6.70
2023-05-20T06:24:56.926Z,11.30
2023-05-20T06:27:24.145Z,4.00
2023-05-20T06:29:51.299Z,3.10
2023-05-20T06:32:18.599Z,2.40
2023-05-20T06:34:46.184Z,7.40
2023-05-20T06:37:13.825Z,8.60
2023-05-20T06:39:41.087Z,8.00
2023-05-20T06:42:08.560Z,5.20
2023-05-20T06:44:36.786Z,11.60
2023-05-20T06:47:33.381Z,4.90
2023-05-20T06:50:01.624Z,4.80
2023-05-20T06:52:29.510Z,4.50
2023-05-20T06:54:57.039Z,6.30
2023-05-20T06:57:24.328Z,4.70
2023-05-20T06:59:52.008Z,4.70
2023-05-20T07:02:20.001Z,9.00
2023-05-20T07:04:47.149Z,6.00
2023-05-20T07:07:16.064Z,5.60
2023-05-20T07:09:45.360Z,10.70
2023-05-20T07:12:12.527Z,12.30
2023-05-20T07:14:39.762Z,5.80
2023-05-20T07:17:07.163Z,8.10
2023-05-20T07:19:34.545Z,7.20
2023-05-20T07:22:02.769Z,6.40
2023-05-20T07:24:47.089Z,5.40
2023-05-20T07:27:14.697Z,9.70
2023-05-20T07:29:42.265Z,18.80
2023-05-20T07:32:10.851Z,25.60
2023-05-20T07:34:38.732Z,12.40
2023-05-20T07:37:06.272Z,21.10
2023-05-20T07:39:33.442Z,8.40
2023-05-20T07:42:00.934Z,8.60
2023-05-20T07:44:28.054Z,3.90
2023-05-20T07:46:56.344Z,12.90
2023-05-20T07:49:23.604Z,16.70
2023-05-20T07:51:50.938Z,19.70
2023-05-20T07:54:18.194Z,16.50
2023-05-20T07:56:47.838Z,12.30
2023-05-20T07:59:15.147Z,6.40
2023-05-20T08:01:45.293Z,6.10
2023-05-20T08:04:14.354Z,7.00
2023-05-20T08:06:42.190Z,9.10
2023-05-20T08:09:12.248Z,19.50
2023-05-20T08:11:41.887Z,4.60
2023-05-20T08:14:09.066Z,9.50
2023-05-20T08:16:39.974Z,5.40
2023-05-20T08:19:07.130Z,8.10
2023-05-20T08:21:35.450Z,11.50
2023-05-20T08:24:03.143Z,11.20
2023-05-20T08:26:31.581Z,6.30
2023-05-20T08:28:59.039Z,9.80
2023-05-20T08:31:26.956Z,6.10
2023-05-20T08:33:54.440Z,6.80
2023-05-20T08:36:21.526Z,6.50
2023-05-20T08:38:50.092Z,4.10
2023-05-20T08:41:17.309Z,5.80
2023-05-20T08:43:45.545Z,5.00
2023-05-20T08:46:13.780Z,7.90
2023-05-20T08:48:41.982Z,11.10
2023-05-20T08:51:11.356Z,10.80
2023-05-20T08:53:38.532Z,12.50
2023-05-20T08:56:06.581Z,8.70
2023-05-20T08:58:33.873Z,9.40
2023-05-20T09:01:02.223Z,8.80
2023-05-20T09:03:29.616Z,6.20
2023-05-20T09:06:09.760Z,10.00
2023-05-20T09:08:37.417Z,10.60
2023-05-20T09:11:04.777Z,10.60
2023-05-20T09:13:35.170Z,4.30
2023-05-20T09:16:02.704Z,6.40
2023-05-20T09:18:30.393Z,15.30
2023-05-20T09:20:57.752Z,3.50
2023-05-20T09:23:30.379Z,6.70
2023-05-20T09:26:00.656Z,11.10
2023-05-20T09:28:27.768Z,4.60
2023-05-20T09:30:59.370Z,3.80
2023-05-20T09:33:32.122Z,6.30
2023-05-20T09:36:08.023Z,5.90
2023-05-20T09:38:39.103Z,4.10
2023-05-20T09:41:12.756Z,13.10
2023-05-20T09:43:40.577Z,7.00
2023-05-20T09:46:08.627Z,6.80
2023-05-20T09:48:39.942Z,9.70
2023-05-20T09:51:08.101Z,6.10
2023-05-20T09:53:36.375Z,4.70
2023-05-20T09:56:03.764Z,7.60
2023-05-20T09:58:31.511Z,6.50
2023-05-20T10:00:58.921Z,11.40
2023-05-20T10:03:28.576Z,12.10
2023-05-20T10:06:05.498Z,5.20
2023-05-20T10:08:51.551Z,13.40
2023-05-20T10:11:32.421Z,6.20
2023-05-20T10:14:30.706Z,6.40
2023-05-20T10:17:17.565Z,6.40
2023-05-20T10:19:45.063Z,9.80
2023-05-20T10:22:12.309Z,9.10
2023-05-20T10:24:44.195Z,4.60
2023-05-20T10:27:17.287Z,9.40
2023-05-20T10:29:52.143Z,8.40
2023-05-20T10:32:31.534Z,11.70
2023-05-20T10:35:09.420Z,8.70
2023-05-20T10:37:45.226Z,12.70
2023-05-20T10:40:14.649Z,5.70
2023-05-20T10:42:42.710Z,15.30
2023-05-20T10:45:10.605Z,17.30
2023-05-20T10:47:43.170Z,10.20
2023-05-20T10:50:27.973Z,64.90
2023-05-20T10:53:03.241Z,21.60
2023-05-20T10:55:37.657Z,12.00
2023-05-20T10:58:06.384Z,10.80
2023-05-20T11:00:37.978Z,10.00
2023-05-20T11:03:07.009Z,11.70
2023-05-20T11:05:35.451Z,11.40
2023-05-20T11:08:08.011Z,10.20
2023-05-20T11:10:38.324Z,5.60
2023-05-20T11:13:05.883Z,7.80
2023-05-20T11:15:35.673Z,10.90
2023-05-20T11:18:04.798Z,22.40
2023-05-20T11:20:35.487Z,8.50
2023-05-20T11:23:06.801Z,12.40
2023-05-20T11:25:33.957Z,22.30
2023-05-20T11:28:01.183Z,8.90
2023-05-20T11:30:28.455Z,15.30
2023-05-20T11:33:02.097Z,10.20
2023-05-20T11:35:31.492Z,10.60
2023-05-20T11:38:01.757Z,9.00
2023-05-20T11:40:35.856Z,16.50
2023-05-20T11:43:14.972Z,8.10
2023-05-20T11:45:47.143Z,8.20
2023-05-20T11:48:17.595Z,10.90
2023-05-20T11:50:46.821Z,17.50
2023-05-20T11:53:20.661Z,10.30
2023-05-20T11:55:59.014Z,15.90
2023-05-20T11:58:29.093Z,15.90
2023-05-20T12:01:02.300Z,18.00
2023-05-20T12:03:36.889Z,20.40
2023-05-20T12:06:04.652Z,15.80
2023-05-20T12:08:31.939Z,13.20
2023-05-20T12:10:59.281Z,16.20
2023-05-20T12:13:26.624Z,14.60
2023-05-20T12:15:53.857Z,9.30
2023-05-20T12:18:22.917Z,11.60
2023-05-20T12:20:50.065Z,20.40
2023-05-20T12:23:17.203Z,16.30
2023-05-20T12:25:47.308Z,9.00
2023-05-20T12:28:14.762Z,10.60
2023-05-20T12:30:42.121Z,10.00
2023-05-20T12:33:09.826Z,14.70
2023-05-20T12:35:39.523Z,9.00
2023-05-20T12:38:07.403Z,14.60
2023-05-20T12:40:35.806Z,13.40
2023-05-20T12:43:04.574Z,15.10
2023-05-20T12:45:31.711Z,23.10
2023-05-20T12:47:59.456Z,17.20
2023-05-20T12:50:27.451Z,14.60
2023-05-20T12:52:54.845Z,20.20
2023-05-20T12:55:22.074Z,10.40
2023-05-20T12:57:50.403Z,11.40
2023-05-20T13:00:18.033Z,11.20
2023-05-20T13:02:45.339Z,74.50
2023-05-20T13:05:13.559Z,9.30
2023-05-20T13:07:40.836Z,11.50
2023-05-20T13:10:08.356Z,10.80
2023-05-20T13:12:35.845Z,8.10
2023-05-20T13:15:04.372Z,11.70
2023-05-20T13:17:32.061Z,9.70
2023-05-20T13:19:59.481Z,12.50
2023-05-20T13:22:26.781Z,30.90
2023-05-20T13:24:54.088Z,13.00
2023-05-20T13:27:21.389Z,21.50
2023-05-20T13:29:48.657Z,11.10
2023-05-20T13:32:15.808Z,9.90
2023-05-20T13:34:43.060Z,10.80
2023-05-20T13:37:10.261Z,17.60
2023-05-20T13:39:37.721Z,6.60
2023-05-20T13:42:05.094Z,12.10
2023-05-20T13:44:32.821Z,17.90
2023-05-20T13:47:00.729Z,14.70
2023-05-20T13:49:28.012Z,12.80
2023-05-20T13:51:55.228Z,12.40
2023-05-20T13:54:22.404Z,16.70
2023-05-20T13:56:49.604Z,14.30
2023-05-20T13:59:16.814Z,16.40
2023-05-20T14:01:45.664Z,16.60
2023-05-20T14:04:13.077Z,16.70
2023-05-20T14:06:40.267Z,15.80
2023-05-20T14:09:09.331Z,16.90
2023-05-20T14:11:37.036Z,12.70
2023-05-20T14:14:04.436Z,15.80
2023-05-20T14:16:32.865Z,10.50
2023-05-20T14:19:00.101Z,9.80
2023-05-20T14:21:27.496Z,11.50
2023-05-20T14:23:54.625Z,8.70
2023-05-20T14:26:22.041Z,16.20
2023-05-20T14:28:49.431Z,11.00
2023-05-20T14:31:16.793Z,10.60
2023-05-20T14:33:43.907Z,35.00
2023-05-20T14:36:11.607Z,10.60
2023-05-20T14:38:38.877Z,9.50
2023-05-20T14:41:06.054Z,14.10
2023-05-20T14:43:33.184Z,9.00
2023-05-20T14:46:02.897Z,13.80
2023-05-20T14:48:30.131Z,10.20
2023-05-20T14:50:57.360Z,14.90
2023-05-20T14:53:24.540Z,12.40
2023-05-20T14:55:51.752Z,11.20
2023-05-20T14:58:18.931Z,36.40
2023-05-20T15:00:46.206Z,18.80
2023-05-20T15:03:13.873Z,17.80
2023-05-20T15:05:42.294Z,15.00
2023-05-20T15:08:09.665Z,14.00
2023-05-20T15:10:37.247Z,19.50
2023-05-20T15:13:04.580Z,18.70
2023-05-20T15:15:31.943Z,12.00
2023-05-20T15:17:59.316Z,18.00
2023-05-20T15:20:26.655Z,12.10
2023-05-20T15:22:54.285Z,18.20
2023-05-20T15:25:21.584Z,12.70
2023-05-20T15:27:48.941Z,15.90
2023-05-20T15:30:17.389Z,15.30
2023-05-20T15:32:44.867Z,16.70
2023-05-20T15:35:12.076Z,10.00
2023-05-20T15:37:39.366Z,14.70
2023-05-20T15:40:07.403Z,21.70
2023-05-20T15:42:34.819Z,14.50
2023-05-20T15:45:02.073Z,13.60
2023-05-20T15:47:29.284Z,11.70
2023-05-20T15:49:57.505Z,8.60
2023-05-20T15:52:24.733Z,11.20
2023-05-20T15:54:52.001Z,12.50
2023-05-20T15:57:19.416Z,16.20
2023-05-20T15:59:46.557Z,9.40
2023-05-20T16:02:13.865Z,10.60
2023-05-20T16:04:41.410Z,15.30
2023-05-20T16:07:08.640Z,9.90
2023-05-20T16:09:35.934Z,14.40
2023-05-20T16:12:03.138Z,11.40
2023-05-20T16:14:30.312Z,15.50
2023-05-20T16:16:57.480Z,10.30
2023-05-20T16:19:24.658Z,11.80
2023-05-20T16:21:51.962Z,12.90
2023-05-20T16:24:19.061Z,13.50
2023-05-20T16:26:46.341Z,18.40
2023-05-20T16:29:16.236Z,18.20
2023-05-20T16:31:46.702Z,14.90
2023-05-20T16:34:15.932Z,19.70
2023-05-20T16:36:45.277Z,23.00
2023-05-20T16:39:13.373Z,11.30
2023-05-20T16:41:41.045Z,24.40
2023-05-20T16:44:08.762Z,17.90
2023-05-20T16:46:36.161Z,23.30
2023-05-20T16:49:03.374Z,35.20
2023-05-20T16:51:31.261Z,32.00
2023-05-20T16:53:58.476Z,43.30
2023-05-20T16:56:26.285Z,24.50
2023-05-20T16:58:53.457Z,16.30
2023-05-20T17:01:21.829Z,20.70
2023-05-20T17:03:49.862Z,15.60
2023-05-20T17:06:17.788Z,13.20
2023-05-20T17:08:44.901Z,11.70
2023-05-20T17:11:12.233Z,14.30
2023-05-20T17:13:41.591Z,13.20
2023-05-20T17:16:09.955Z,17.50
2023-05-20T17:18:37.375Z,32.10
2023-05-20T17:21:04.907Z,40.80
2023-05-20T17:23:32.094Z,57.30
2023-05-20T17:25:59.474Z,36.20
2023-05-20T17:28:26.745Z,40.40
2023-05-20T17:30:53.908Z,30.00
2023-05-20T17:33:21.259Z,51.10
2023-05-20T17:35:48.483Z,28.70
2023-05-20T17:38:15.607Z,20.00
2023-05-20T17:40:42.788Z,25.20
2023-05-20T17:43:09.838Z,29.50
2023-05-20T17:45:37.007Z,26.90
2023-05-20T17:48:08.202Z,39.90
2023-05-20T17:50:38.278Z,39.10
2023-05-20T17:53:05.451Z,37.70
2023-05-20T17:55:36.184Z,67.20
2023-05-20T17:58:03.951Z,70.00
2023-05-20T18:00:34.501Z,130.00
2023-05-20T18:03:02.052Z,64.40
2023-05-20T18:05:29.547Z,53.70
2023-05-20T18:07:57.499Z,44.00
2023-05-20T18:10:24.747Z,27.60
2023-05-20T18:12:52.042Z,54.50
2023-05-20T18:15:19.227Z,89.60
2023-05-20T18:17:46.436Z,93.90
2023-05-20T18:20:14.574Z,65.10
2023-05-20T18:22:45.315Z,41.90
2023-05-20T18:25:13.500Z,36.90
2023-05-20T18:27:41.260Z,31.20
2023-05-20T18:30:09.882Z,27.30
2023-05-20T18:32:38.490Z,25.40
2023-05-20T18:35:06.188Z,34.10
2023-05-20T18:37:33.415Z,28.10
2023-05-20T18:40:00.666Z,33.90
2023-05-20T18:42:27.935Z,40.10
2023-05-20T18:44:55.091Z,51.80
2023-05-20T18:47:22.485Z,41.10
2023-05-20T18:49:49.676Z,45.70
2023-05-20T18:52:16.835Z,49.70
2023-05-20T18:54:44.073Z,44.70
2023-05-20T18:57:11.592Z,47.20
2023-05-20T18:59:38.771Z,60.90
2023-05-20T19:02:06.220Z,66.90
2023-05-20T19:04:33.598Z,46.70
2023-05-20T19:07:01.126Z,42.40
2023-05-20T19:09:28.360Z,42.20
2023-05-20T19:11:59.163Z,63.80
2023-05-20T19:14:26.468Z,44.20
2023-05-20T19:16:53.794Z,33.60
2023-05-20T19:19:21.542Z,37.20
2023-05-20T19:21:49.253Z,30.80
2023-05-20T19:24:17.759Z,24.50
2023-05-20T19:26:45.693Z,19.40
2023-05-20T19:29:15.176Z,22.10
2023-05-20T19:31:43.274Z,15.70
2023-05-20T19:34:10.379Z,16.50
2023-05-20T19:36:38.553Z,25.20
2023-05-20T19:39:05.806Z,22.90
2023-05-20T19:41:33.072Z,26.00
2023-05-20T19:44:01.165Z,21.40
2023-05-20T19:46:28.538Z,22.80
2023-05-20T19:48:57.593Z,35.00
2023-05-20T19:51:24.903Z,38.60
2023-05-20T19:53:52.121Z,36.80
2023-05-20T19:56:24.139Z,41.20
2023-05-20T19:58:51.673Z,28.80
2023-05-20T20:01:18.899Z,24.20
2023-05-20T20:03:46.225Z,57.10
2023-05-20T20:06:13.652Z,97.90
2023-05-20T20:08:41.748Z,89.40
2023-05-20T20:11:09.310Z,80.90
2023-05-20T20:13:36.536Z,61.90
2023-05-20T20:16:03.760Z,50.90
2023-05-20T20:18:32.322Z,27.40
2023-05-20T20:21:05.990Z,27.80
2023-05-20T20:23:33.312Z,26.00
2023-05-20T20:26:00.560Z,23.30
2023-05-20T20:28:27.914Z,30.60
2023-05-20T20:30:54.984Z,34.60
2023-05-20T20:33:22.190Z,34.40
2023-05-20T20:35:49.438Z,41.60
2023-05-20T20:38:18.199Z,34.80
2023-05-20T20:40:46.098Z,27.30
2023-05-20T20:43:20.489Z,30.70
2023-05-20T20:45:51.040Z,33.10
2023-05-20T20:48:18.986Z,31.90
2023-05-20T20:50:48.133Z,34.30
2023-05-20T20:53:19.052Z,31.10
2023-05-20T20:55:51.310Z,36.10
2023-05-20T20:58:19.117Z,33.30
2023-05-20T21:00:48.761Z,30.00
2023-05-20T21:03:16.391Z,28.90
2023-05-20T21:05:44.566Z,26.50
2023-05-20T21:08:13.359Z,24.90
2023-05-20T21:10:40.759Z,34.90
2023-05-20T21:13:08.064Z,51.70
2023-05-20T21:15:35.532Z,36.10
2023-05-20T21:18:03.016Z,26.60
2023-05-20T21:20:30.187Z,19.60
2023-05-20T21:22:57.331Z,25.30
2023-05-20T21:25:24.472Z,26.50
2023-05-20T21:27:51.642Z,30.50
2023-05-20T21:30:20.170Z,28.60
2023-05-20T21:32:47.412Z,29.60
2023-05-20T21:35:14.695Z,42.50
2023-05-20T21:37:42.039Z,30.70
2023-05-20T21:40:09.591Z,25.20
2023-05-20T21:42:36.806Z,32.40
2023-05-20T21:45:04.251Z,34.80
2023-05-20T21:47:31.403Z,25.30
2023-05-20T21:49:58.587Z,40.50
2023-05-20T21:52:25.930Z,38.90
2023-05-20T21:54:53.186Z,31.40
2023-05-20T21:57:20.445Z,24.00
2023-05-20T21:59:47.982Z,23.10
2023-05-20T22:02:15.173Z,23.30
2023-05-20T22:04:43.670Z,18.40
2023-05-20T22:07:11.310Z,28.50
2023-05-20T22:09:38.580Z,24.80
2023-05-20T22:12:05.931Z,18.40
2023-05-20T22:14:33.224Z,19.60
2023-05-20T22:17:00.344Z,18.70
2023-05-20T22:19:28.183Z,19.90
2023-05-20T22:21:55.797Z,15.60
2023-05-20T22:24:23.066Z,15.30
2023-05-20T22:26:50.328Z,18.70
2023-05-20T22:29:17.494Z,28.10
2023-05-20T22:31:44.648Z,27.10
2023-05-20T22:34:11.937Z,18.50
2023-05-20T22:36:39.445Z,18.70
2023-05-20T22:39:07.174Z,20.00
2023-05-20T22:41:34.390Z,15.80
2023-05-20T22:44:01.622Z,17.10
2023-05-20T22:46:28.885Z,18.90
2023-05-20T22:48:58.382Z,15.80
2023-05-20T22:51:25.696Z,14.60
2023-05-20T22:53:53.210Z,12.90
2023-05-20T22:56:21.353Z,9.60
2023-05-20T22:58:48.554Z,9.30
2023-05-20T23:01:16.809Z,9.50
2023-05-20T23:03:44.994Z,11.40
2023-05-20T23:06:12.794Z,10.60
2023-05-20T23:08:40.778Z,17.10
2023-05-20T23:11:07.982Z,11.80
2023-05-20T23:13:35.127Z,10.30
2023-05-20T23:16:02.313Z,12.70
2023-05-20T23:18:29.405Z,12.80
2023-05-20T23:20:56.520Z,15.40
2023-05-20T23:23:30.397Z,24.30
2023-05-20T23:25:58.950Z,43.80
2023-05-20T23:28:26.379Z,36.20
2023-05-20T23:30:54.671Z,27.40
2023-05-20T23:33:25.369Z,20.40
2023-05-20T23:35:53.263Z,15.80
2023-05-20T23:38:20.578Z,11.90
2023-05-20T23:40:48.678Z,11.70
2023-05-20T23:43:16.211Z,12.20
2023-05-20T23:45:43.366Z,8.80
2023-05-20T23:48:13.476Z,7.90
2023-05-20T23:50:40.905Z,9.80
2023-05-20T23:53:08.116Z,11.80
2023-05-20T23:55:35.464Z,12.20
2023-05-20T23:58:03.156Z,14.60
